Time;durP1;ratioP1;P1;durP2;ratioP2;P2;SDS_P1;SDS_P2;PMS_P1;PMS_P2;Temp;Humidity;BMP_temperature;BMP_pressure;BME280_temperature;BME280_humidity;BME280_pressure;Samples;Min_cycle;Max_cycle;Signal;HPM_P1;HPM_P2
2021/05/16 00:00:18;;;;;;;0.60;0.60;;;;;;;;;;4895692;29;20254;-78
2021/05/16 00:02:46;;;;;;;0.50;0.50;;;;;;;;;;4907261;29;20233;-76
2021/05/16 00:05:16;;;;;;;0.60;0.60;;;;;;;;;;4925034;28;20229;-76
2021/05/16 00:07:44;;;;;;;1.57;0.50;;;;;;;;;;4892827;29;20712;-77
2021/05/16 00:10:14;;;;;;;0.50;0.50;;;;;;;;;;4914236;28;20236;-76
2021/05/16 00:12:42;;;;;;;0.50;0.50;;;;;;;;;;4912641;29;20580;-77
2021/05/16 00:15:14;;;;;;;0.50;0.50;;;;;;;;;;4914466;28;20220;-76
2021/05/16 00:17:43;;;;;;;0.70;0.40;;;;;;;;;;4913012;29;20232;-77
2021/05/16 00:20:13;;;;;;;0.60;0.60;;;;;;;;;;4905226;28;20330;-77
2021/05/16 00:22:43;;;;;;;0.60;0.50;;;;;;;;;;4902619;29;20236;-77
2021/05/16 00:25:14;;;;;;;1.33;0.50;;;;;;;;;;4907535;28;20235;-77
2021/05/16 00:27:43;;;;;;;1.37;0.60;;;;;;;;;;4901496;29;20228;-77
2021/05/16 00:30:13;;;;;;;0.90;0.57;;;;;;;;;;4912067;29;20236;-77
2021/05/16 00:32:41;;;;;;;0.60;0.60;;;;;;;;;;4910909;28;20231;-77
2021/05/16 00:35:12;;;;;;;0.60;0.60;;;;;;;;;;4901542;28;20224;-77
2021/05/16 00:37:40;;;;;;;2.27;0.53;;;;;;;;;;4913492;28;20239;-77
2021/05/16 00:40:10;;;;;;;0.50;0.50;;;;;;;;;;4907953;29;20235;-77
2021/05/16 00:42:38;;;;;;;1.07;0.63;;;;;;;;;;4912238;28;20228;-77
2021/05/16 00:45:08;;;;;;;0.47;0.40;;;;;;;;;;4910377;29;20721;-77
2021/05/16 00:47:36;;;;;;;0.60;0.50;;;;;;;;;;4912918;29;20228;-77
2021/05/16 00:50:07;;;;;;;0.77;0.57;;;;;;;;;;4912678;28;20764;-79
2021/05/16 00:52:38;;;;;;;1.57;0.57;;;;;;;;;;4923570;28;20227;-77
2021/05/16 00:55:08;;;;;;;0.50;0.50;;;;;;;;;;4914063;28;20240;-77
2021/05/16 00:57:38;;;;;;;1.20;0.70;;;;;;;;;;4897101;29;20513;-77
2021/05/16 01:00:09;;;;;;;0.50;0.50;;;;;;;;;;4896866;29;20236;-77
2021/05/16 01:02:38;;;;;;;0.60;0.60;;;;;;;;;;4913835;28;20220;-76
2021/05/16 01:05:08;;;;;;;0.77;0.50;;;;;;;;;;4909056;28;20588;-77
2021/05/16 01:07:38;;;;;;;1.13;0.63;;;;;;;;;;4911756;28;20235;-77
2021/05/16 01:10:09;;;;;;;1.47;0.90;;;;;;;;;;4912831;28;20334;-77
2021/05/16 01:12:42;;;;;;;1.33;0.60;;;;;;;;;;4892041;29;20305;-76
2021/05/16 01:15:12;;;;;;;2.07;0.60;;;;;;;;;;4910350;29;20703;-77
2021/05/16 01:17:40;;;;;;;1.03;0.70;;;;;;;;;;4904640;29;20228;-76
2021/05/16 01:20:11;;;;;;;1.47;0.50;;;;;;;;;;4895457;28;20239;-77
2021/05/16 01:22:52;;;;;;;3.03;0.70;;;;;;;;;;4894938;29;20219;-77
2021/05/16 01:25:20;;;;;;;1.27;0.63;;;;;;;;;;4905641;28;20325;-77
2021/05/16 01:27:48;;;;;;;0.70;0.60;;;;;;;;;;4906961;29;20235;-77
2021/05/16 01:30:19;;;;;;;0.73;0.50;;;;;;;;;;4911605;29;20235;-79
2021/05/16 01:32:48;;;;;;;1.03;0.70;;;;;;;;;;4911573;29;20694;-77
2021/05/16 01:35:16;;;;;;;1.57;0.60;;;;;;;;;;4888664;28;20709;-76
2021/05/16 01:37:46;;;;;;;2.03;0.60;;;;;;;;;;4911799;29;20592;-77
2021/05/16 01:40:17;;;;;;;1.10;0.53;;;;;;;;;;4908840;29;20233;-76
2021/05/16 01:42:47;;;;;;;1.23;0.60;;;;;;;;;;4902475;29;20990;-77
2021/05/16 01:45:19;;;;;;;0.70;0.70;;;;;;;;;;4905103;29;20255;-77
2021/05/16 01:47:47;;;;;;;1.77;0.70;;;;;;;;;;4911674;28;20434;-77
2021/05/16 01:50:17;;;;;;;1.40;1.30;;;;;;;;;;4912079;28;20232;-77
2021/05/16 01:52:47;;;;;;;0.63;0.63;;;;;;;;;;4894452;29;20239;-77
2021/05/16 01:55:17;;;;;;;4.70;0.80;;;;;;;;;;4903164;29;20698;-77
2021/05/16 01:57:45;;;;;;;2.47;0.90;;;;;;;;;;4910053;29;20235;-76
2021/05/16 02:00:17;;;;;;;0.63;0.60;;;;;;;;;;4907077;29;20737;-79
2021/05/16 02:02:46;;;;;;;0.77;0.73;;;;;;;;;;4906772;28;20251;-77
2021/05/16 02:05:22;;;;;;;1.97;0.90;;;;;;;;;;4902155;28;20231;-76
2021/05/16 02:07:51;;;;;;;0.97;0.70;;;;;;;;;;4895829;29;20224;-77
2021/05/16 02:10:22;;;;;;;1.40;1.07;;;;;;;;;;4901760;29;20229;-77
2021/05/16 02:12:54;;;;;;;6.97;1.47;;;;;;;;;;4918816;28;20231;-76
2021/05/16 02:15:23;;;;;;;2.43;0.93;;;;;;;;;;4925020;29;20242;-76
2021/05/16 02:17:54;;;;;;;1.63;0.90;;;;;;;;;;4914065;29;20235;-77
2021/05/16 02:20:25;;;;;;;1.27;0.70;;;;;;;;;;4895291;29;20240;-77
2021/05/16 02:22:53;;;;;;;1.83;0.90;;;;;;;;;;4882204;29;20233;-77
2021/05/16 02:25:23;;;;;;;1.57;0.73;;;;;;;;;;4881313;29;20236;-78
2021/05/16 02:27:52;;;;;;;2.10;0.80;;;;;;;;;;4908022;28;20227;-77
2021/05/16 02:30:23;;;;;;;2.10;0.97;;;;;;;;;;4911846;28;20749;-78
2021/05/16 02:32:52;;;;;;;4.53;0.80;;;;;;;;;;4908244;29;20248;-78
2021/05/16 02:35:20;;;;;;;1.20;0.90;;;;;;;;;;4892192;29;20243;-77
2021/05/16 02:37:54;;;;;;;1.47;1.00;;;;;;;;;;4892028;28;20232;-77
2021/05/16 02:40:24;;;;;;;1.00;0.70;;;;;;;;;;4882270;29;20244;-77
2021/05/16 02:42:53;;;;;;;1.80;0.70;;;;;;;;;;4892644;29;20236;-78
2021/05/16 02:45:22;;;;;;;0.97;0.80;;;;;;;;;;4897164;29;20242;-77
2021/05/16 02:47:55;;;;;;;2.17;0.80;;;;;;;;;;4913739;28;20224;-77
2021/05/16 02:50:25;;;;;;;0.70;0.60;;;;;;;;;;4907766;28;20224;-77
2021/05/16 02:52:59;;;;;;;0.80;0.70;;;;;;;;;;4911907;28;20263;-77
2021/05/16 02:55:33;;;;;;;2.33;0.90;;;;;;;;;;4898623;29;20698;-76
2021/05/16 02:58:02;;;;;;;4.90;0.80;;;;;;;;;;4914849;28;20228;-77
2021/05/16 03:00:37;;;;;;;1.27;1.03;;;;;;;;;;4913888;29;20228;-77
2021/05/16 03:03:05;;;;;;;4.20;0.90;;;;;;;;;;4898852;29;20247;-77
2021/05/16 03:05:33;;;;;;;3.53;1.00;;;;;;;;;;4914782;29;20231;-76
2021/05/16 03:08:01;;;;;;;4.13;1.03;;;;;;;;;;4899006;28;20642;-76
2021/05/16 03:10:30;;;;;;;1.40;0.80;;;;;;;;;;4915203;29;20231;-77
2021/05/16 03:13:00;;;;;;;1.83;0.90;;;;;;;;;;4914008;29;20236;-77
2021/05/16 03:15:30;;;;;;;1.37;0.73;;;;;;;;;;4913039;29;20235;-79
2021/05/16 03:17:59;;;;;;;2.23;0.80;;;;;;;;;;4910427;29;20638;-76
2021/05/16 03:20:28;;;;;;;1.23;0.63;;;;;;;;;;4880148;29;20603;-79
2021/05/16 03:22:56;;;;;;;1.70;0.70;;;;;;;;;;4907652;29;20241;-80
2021/05/16 03:25:26;;;;;;;2.73;0.80;;;;;;;;;;4914079;29;20235;-77
2021/05/16 03:27:55;;;;;;;1.93;0.67;;;;;;;;;;4908986;28;20232;-77
2021/05/16 03:30:24;;;;;;;2.37;0.70;;;;;;;;;;4912879;28;20247;-77
2021/05/16 03:32:53;;;;;;;0.80;0.80;;;;;;;;;;4908836;28;20586;-77
2021/05/16 03:35:21;;;;;;;1.47;0.80;;;;;;;;;;4913267;29;20235;-77
2021/05/16 03:37:49;;;;;;;2.63;0.90;;;;;;;;;;4908406;29;20237;-77
2021/05/16 03:40:17;;;;;;;2.70;0.77;;;;;;;;;;4909861;29;20232;-77
2021/05/16 03:42:45;;;;;;;2.20;0.63;;;;;;;;;;4913551;29;20342;-77
2021/05/16 03:45:14;;;;;;;1.93;0.80;;;;;;;;;;4912424;29;20235;-77
2021/05/16 03:47:43;;;;;;;0.73;0.53;;;;;;;;;;4898793;29;20236;-77
2021/05/16 03:50:12;;;;;;;1.63;0.90;;;;;;;;;;4912731;28;20228;-78
2021/05/16 03:52:43;;;;;;;2.63;0.67;;;;;;;;;;4907043;29;20235;-77
2021/05/16 03:55:12;;;;;;;1.30;0.73;;;;;;;;;;4908380;29;20228;-78
2021/05/16 03:57:40;;;;;;;1.00;0.87;;;;;;;;;;4914088;29;20239;-78
2021/05/16 04:00:09;;;;;;;2.83;1.30;;;;;;;;;;4885254;29;20960;-78
2021/05/16 04:02:44;;;;;;;3.70;0.80;;;;;;;;;;4906914;29;20711;-78
2021/05/16 04:05:13;;;;;;;1.57;0.77;;;;;;;;;;4895959;28;20231;-78
2021/05/16 04:07:43;;;;;;;0.93;0.93;;;;;;;;;;4905829;29;20228;-78
2021/05/16 04:10:12;;;;;;;1.33;0.60;;;;;;;;;;4911891;28;20248;-78
2021/05/16 04:12:40;;;;;;;2.40;1.00;;;;;;;;;;4893468;29;20618;-77
2021/05/16 04:15:08;;;;;;;3.57;0.70;;;;;;;;;;4908433;29;20239;-78
2021/05/16 04:17:36;;;;;;;1.13;0.83;;;;;;;;;;4896860;29;20244;-77
2021/05/16 04:20:08;;;;;;;3.00;0.70;;;;;;;;;;4913207;28;20243;-78
2021/05/16 04:22:36;;;;;;;2.67;0.70;;;;;;;;;;4897699;29;20235;-78
2021/05/16 04:25:05;;;;;;;0.80;0.73;;;;;;;;;;4912831;28;20243;-78
2021/05/16 04:27:34;;;;;;;2.37;0.80;;;;;;;;;;4895297;29;20228;-78
2021/05/16 04:30:03;;;;;;;2.07;0.70;;;;;;;;;;4909951;29;20279;-78
2021/05/16 04:32:31;;;;;;;0.77;0.60;;;;;;;;;;4911649;28;20714;-78
2021/05/16 04:34:59;;;;;;;2.43;1.00;;;;;;;;;;4914219;28;20239;-77
2021/05/16 04:37:29;;;;;;;2.60;0.90;;;;;;;;;;4913498;29;20224;-78
2021/05/16 04:39:57;;;;;;;0.80;0.80;;;;;;;;;;4915268;28;20623;-78
2021/05/16 04:42:25;;;;;;;3.13;0.70;;;;;;;;;;4912847;29;20572;-78
2021/05/16 04:44:53;;;;;;;1.17;0.87;;;;;;;;;;4910774;29;20224;-78
2021/05/16 04:47:21;;;;;;;1.70;0.70;;;;;;;;;;4896977;29;20706;-77
2021/05/16 04:49:49;;;;;;;1.37;1.00;;;;;;;;;;4914800;28;20617;-78
2021/05/16 04:52:17;;;;;;;2.60;0.93;;;;;;;;;;4919533;28;20224;-76
2021/05/16 04:54:46;;;;;;;0.80;0.80;;;;;;;;;;4928102;29;20240;-77
2021/05/16 04:57:14;;;;;;;7.37;1.00;;;;;;;;;;4926816;29;20578;-76
2021/05/16 04:59:42;;;;;;;1.47;0.73;;;;;;;;;;4923507;29;20615;-78
2021/05/16 05:02:10;;;;;;;1.93;0.90;;;;;;;;;;4901768;28;20500;-78
2021/05/16 05:04:38;;;;;;;2.83;0.90;;;;;;;;;;4891678;29;20229;-81
2021/05/16 05:07:07;;;;;;;2.93;0.97;;;;;;;;;;4923024;28;20260;-80
2021/05/16 05:09:35;;;;;;;3.17;1.00;;;;;;;;;;4916731;29;20248;-79
2021/05/16 05:12:05;;;;;;;2.17;0.70;;;;;;;;;;4909172;28;20233;-78
2021/05/16 05:14:33;;;;;;;1.13;0.80;;;;;;;;;;4912715;29;20662;-77
2021/05/16 05:17:01;;;;;;;4.47;0.80;;;;;;;;;;4913362;28;20264;-78
2021/05/16 05:19:29;;;;;;;1.50;0.83;;;;;;;;;;4894794;29;20259;-78
2021/05/16 05:21:57;;;;;;;1.03;0.87;;;;;;;;;;4910413;28;20232;-80
2021/05/16 05:24:26;;;;;;;1.40;0.80;;;;;;;;;;4896177;29;20247;-79
2021/05/16 05:26:54;;;;;;;1.33;0.70;;;;;;;;;;4912414;28;20228;-78
2021/05/16 05:29:23;;;;;;;3.63;1.13;;;;;;;;;;4910199;29;20224;-78
2021/05/16 05:31:51;;;;;;;1.50;0.70;;;;;;;;;;4911946;29;20248;-76
2021/05/16 05:34:20;;;;;;;2.20;0.70;;;;;;;;;;4910940;29;20232;-76
2021/05/16 05:36:48;;;;;;;1.77;0.80;;;;;;;;;;4912036;29;20240;-77
2021/05/16 05:39:16;;;;;;;2.50;1.00;;;;;;;;;;4911597;28;20231;-78
2021/05/16 05:41:45;;;;;;;1.23;0.80;;;;;;;;;;4911749;29;20236;-77
2021/05/16 05:44:13;;;;;;;2.40;1.07;;;;;;;;;;4896131;28;20239;-77
2021/05/16 05:46:42;;;;;;;2.60;0.70;;;;;;;;;;4892778;29;20225;-80
2021/05/16 05:49:10;;;;;;;1.20;0.63;;;;;;;;;;4903925;28;20733;-78
2021/05/16 05:51:38;;;;;;;1.97;0.77;;;;;;;;;;4912972;28;20437;-77
2021/05/16 05:54:06;;;;;;;4.63;0.90;;;;;;;;;;4901496;28;20231;-77
2021/05/16 05:56:35;;;;;;;3.13;0.90;;;;;;;;;;4910236;29;20235;-77
2021/05/16 05:59:03;;;;;;;2.70;0.80;;;;;;;;;;4910827;28;20235;-77
2021/05/16 06:01:32;;;;;;;1.20;0.67;;;;;;;;;;4915026;29;20240;-77
2021/05/16 06:04:01;;;;;;;1.37;0.80;;;;;;;;;;4901019;28;20240;-77
2021/05/16 06:06:29;;;;;;;0.60;0.60;;;;;;;;;;4910956;29;20639;-76
2021/05/16 06:08:57;;;;;;;0.60;0.57;;;;;;;;;;4910327;29;20232;-77
2021/05/16 06:11:26;;;;;;;0.83;0.50;;;;;;;;;;4908109;29;20504;-76
2021/05/16 06:13:53;;;;;;;1.73;0.70;;;;;;;;;;4911087;28;20251;-77
2021/05/16 06:16:22;;;;;;;1.17;0.80;;;;;;;;;;4907534;28;20606;-76
2021/05/16 06:18:50;;;;;;;1.97;1.10;;;;;;;;;;4905039;29;20235;-76
2021/05/16 06:21:18;;;;;;;1.93;0.80;;;;;;;;;;4909002;29;20243;-76
2021/05/16 06:23:50;;;;;;;1.70;0.70;;;;;;;;;;4893508;29;20231;-77
2021/05/16 06:26:18;;;;;;;1.80;0.80;;;;;;;;;;4906810;29;20230;-77
2021/05/16 06:28:46;;;;;;;2.73;0.70;;;;;;;;;;4889691;29;20236;-78
2021/05/16 06:31:21;;;;;;;1.67;0.70;;;;;;;;;;4909011;29;20232;-76
2021/05/16 06:33:50;;;;;;;0.90;0.63;;;;;;;;;;4885629;29;20231;-76
2021/05/16 06:36:19;;;;;;;0.83;0.63;;;;;;;;;;4904917;29;20627;-76
2021/05/16 06:38:47;;;;;;;5.30;1.07;;;;;;;;;;4900801;29;20228;-77
2021/05/16 06:41:15;;;;;;;2.73;0.80;;;;;;;;;;4904821;28;20235;-77
2021/05/16 06:43:43;;;;;;;2.73;0.67;;;;;;;;;;4908561;28;20227;-77
2021/05/16 06:46:11;;;;;;;1.43;0.70;;;;;;;;;;4912575;28;20239;-77
2021/05/16 06:48:39;;;;;;;2.30;0.77;;;;;;;;;;4910887;28;20239;-76
2021/05/16 06:51:07;;;;;;;1.00;0.70;;;;;;;;;;4908564;29;20231;-77
2021/05/16 06:53:36;;;;;;;1.53;0.80;;;;;;;;;;4907582;29;20636;-76
2021/05/16 06:56:07;;;;;;;1.23;0.70;;;;;;;;;;4906118;28;20229;-75
2021/05/16 06:58:35;;;;;;;1.67;0.90;;;;;;;;;;4893710;29;20244;-75
2021/05/16 07:01:03;;;;;;;1.50;0.70;;;;;;;;;;4908844;28;20239;-80
2021/05/16 07:03:32;;;;;;;1.20;0.90;;;;;;;;;;4903689;29;20252;-75
2021/05/16 07:06:00;;;;;;;4.10;0.77;;;;;;;;;;4896774;28;20239;-75
2021/05/16 07:08:28;;;;;;;2.53;0.90;;;;;;;;;;4898903;29;20736;-75
2021/05/16 07:10:57;;;;;;;2.27;0.80;;;;;;;;;;4897938;28;20243;-76
2021/05/16 07:13:25;;;;;;;1.60;0.80;;;;;;;;;;4891148;29;20594;-76
2021/05/16 07:15:53;;;;;;;1.13;0.70;;;;;;;;;;4907517;29;20229;-77
2021/05/16 07:18:22;;;;;;;1.57;0.80;;;;;;;;;;4904354;29;20232;-76
2021/05/16 07:20:51;;;;;;;1.57;0.90;;;;;;;;;;4909906;29;20231;-76
2021/05/16 07:23:20;;;;;;;1.20;0.70;;;;;;;;;;4890457;29;20240;-75
2021/05/16 07:25:48;;;;;;;2.30;0.80;;;;;;;;;;4897376;29;20221;-76
2021/05/16 07:28:17;;;;;;;3.77;1.10;;;;;;;;;;4889622;28;20232;-75
2021/05/16 07:30:45;;;;;;;102.97;11.37;;;;;;;;;;4896023;29;20608;-76
2021/05/16 07:33:13;;;;;;;2.60;0.97;;;;;;;;;;4914540;28;20235;-75
2021/05/16 07:35:42;;;;;;;2.53;0.70;;;;;;;;;;4914454;29;20228;-75
2021/05/16 07:38:10;;;;;;;2.73;0.90;;;;;;;;;;4910559;28;20224;-75
2021/05/16 07:40:38;;;;;;;1.53;0.80;;;;;;;;;;4897981;28;20248;-75
2021/05/16 07:43:07;;;;;;;1.53;0.90;;;;;;;;;;4909026;28;20757;-75
2021/05/16 07:45:37;;;;;;;1.30;1.10;;;;;;;;;;4902010;29;20710;-77
2021/05/16 07:48:06;;;;;;;4.30;1.07;;;;;;;;;;4908074;29;20228;-74
2021/05/16 07:50:35;;;;;;;1.77;0.90;;;;;;;;;;4910731;29;20228;-74
2021/05/16 07:53:03;;;;;;;1.87;1.20;;;;;;;;;;4905931;28;20216;-75
2021/05/16 07:55:31;;;;;;;3.67;0.90;;;;;;;;;;4913333;29;20243;-75
2021/05/16 07:57:59;;;;;;;1.10;0.80;;;;;;;;;;4912131;28;20721;-75
2021/05/16 08:00:27;;;;;;;1.87;0.87;;;;;;;;;;4933877;28;20250;-74
2021/05/16 08:02:56;;;;;;;1.73;1.07;;;;;;;;;;4904493;29;20168;-75
2021/05/16 08:05:24;;;;;;;2.07;0.80;;;;;;;;;;4905482;29;20232;-76
2021/05/16 08:07:52;;;;;;;1.20;0.80;;;;;;;;;;4895835;28;20232;-76
2021/05/16 08:13:22;;;;;;;3.17;0.93;;;;;;;;;;4850810;29;20487;-77
2021/05/16 08:15:50;;;;;;;0.97;0.87;;;;;;;;;;4856795;29;20238;-77
2021/05/16 08:18:19;;;;;;;1.63;1.20;;;;;;;;;;4864934;29;20249;-79
2021/05/16 08:20:49;;;;;;;4.20;1.10;;;;;;;;;;4852012;29;20241;-77
2021/05/16 08:23:17;;;;;;;2.63;1.00;;;;;;;;;;4850968;29;20226;-77
2021/05/16 08:25:46;;;;;;;2.17;1.00;;;;;;;;;;4865687;29;20324;-77
2021/05/16 08:28:14;;;;;;;1.63;1.20;;;;;;;;;;4852291;29;20265;-77
2021/05/16 08:30:42;;;;;;;3.00;1.27;;;;;;;;;;4850387;29;20457;-77
2021/05/16 08:33:10;;;;;;;1.80;1.00;;;;;;;;;;4854037;29;20241;-78
2021/05/16 08:35:40;;;;;;;1.83;1.03;;;;;;;;;;4861021;29;20237;-78
2021/05/16 08:38:08;;;;;;;1.97;1.13;;;;;;;;;;4863855;29;20245;-79
2021/05/16 08:40:36;;;;;;;3.73;1.00;;;;;;;;;;4844679;29;20231;-78
2021/05/16 08:43:05;;;;;;;3.27;1.20;;;;;;;;;;4858124;29;20241;-76
2021/05/16 08:45:34;;;;;;;2.67;1.10;;;;;;;;;;4867011;29;20241;-76
2021/05/16 08:48:02;;;;;;;2.70;1.10;;;;;;;;;;4853632;29;20242;-76
2021/05/16 08:50:30;;;;;;;2.80;1.13;;;;;;;;;;4857770;29;20716;-76
2021/05/16 08:52:59;;;;;;;4.33;1.57;;;;;;;;;;4865139;29;20838;-76
2021/05/16 08:55:27;;;;;;;2.07;1.00;;;;;;;;;;4856901;29;20712;-76
2021/05/16 08:57:55;;;;;;;2.20;1.10;;;;;;;;;;4872599;29;20230;-76
2021/05/16 09:00:26;;;;;;;3.80;1.30;;;;;;;;;;4885619;29;20229;-76
2021/05/16 09:03:05;;;;;;;3.40;1.00;;;;;;;;;;4869396;29;20735;-79
2021/05/16 09:05:37;;;;;;;2.20;0.93;;;;;;;;;;4886495;29;20255;-75
2021/05/16 09:08:09;;;;;;;2.40;1.20;;;;;;;;;;4875837;29;20233;-75
2021/05/16 09:10:38;;;;;;;1.93;1.00;;;;;;;;;;4885799;29;20225;-75
2021/05/16 09:13:07;;;;;;;2.63;1.13;;;;;;;;;;4887470;29;20230;-75
2021/05/16 09:15:35;;;;;;;5.13;1.20;;;;;;;;;;4873843;29;20233;-75
2021/05/16 09:18:04;;;;;;;1.67;0.90;;;;;;;;;;4885924;29;20230;-75
2021/05/16 09:20:32;;;;;;;1.47;0.90;;;;;;;;;;4889985;29;20241;-77
2021/05/16 09:23:01;;;;;;;2.20;1.00;;;;;;;;;;4875145;29;20233;-75
2021/05/16 09:25:31;;;;;;;5.07;1.53;;;;;;;;;;4856982;29;20257;-76
2021/05/16 09:28:12;;;;;;;2.50;0.90;;;;;;;;;;4873417;29;20237;-76
2021/05/16 09:30:41;;;;;;;2.07;1.00;;;;;;;;;;4872937;29;20229;-75
2021/05/16 09:33:13;;;;;;;1.53;1.00;;;;;;;;;;4873545;29;20237;-75
2021/05/16 09:35:43;;;;;;;1.70;1.00;;;;;;;;;;4874640;29;20233;-76
2021/05/16 09:38:18;;;;;;;1.50;1.20;;;;;;;;;;4871002;29;20225;-76
2021/05/16 09:40:49;;;;;;;1.50;1.10;;;;;;;;;;4874814;29;20230;-76
2021/05/16 09:43:21;;;;;;;2.43;1.13;;;;;;;;;;4867660;29;20696;-75
2021/05/16 09:45:55;;;;;;;2.77;1.03;;;;;;;;;;4853869;29;20244;-75
2021/05/16 09:48:30;;;;;;;2.07;1.00;;;;;;;;;;4894381;29;20233;-75
2021/05/16 09:51:22;;;;;;;2.33;1.27;;;;;;;;;;4879411;29;20240;-76
2021/05/16 09:54:05;;;;;;;2.33;1.37;;;;;;;;;;4882708;29;20238;-77
2021/05/16 09:56:37;;;;;;;1.23;0.90;;;;;;;;;;4877483;29;20237;-77
2021/05/16 09:59:06;;;;;;;1.00;0.83;;;;;;;;;;4868351;29;20920;-75
2021/05/16 10:01:36;;;;;;;2.90;1.03;;;;;;;;;;4866871;29;20234;-75
2021/05/16 10:04:06;;;;;;;2.53;1.00;;;;;;;;;;4871920;29;20684;-76
2021/05/16 10:06:34;;;;;;;1.90;1.30;;;;;;;;;;4889467;29;20234;-77
2021/05/16 10:09:03;;;;;;;3.25;1.00;;;;;;;;;;4875803;29;20248;-76
2021/05/16 10:11:32;;;;;;;1.87;0.90;;;;;;;;;;4855905;29;20233;-76
2021/05/16 10:14:03;;;;;;;2.40;0.90;;;;;;;;;;4884034;29;20237;-75
2021/05/16 10:16:34;;;;;;;4.93;1.33;;;;;;;;;;4873084;29;20229;-76
2021/05/16 10:19:03;;;;;;;3.85;0.90;;;;;;;;;;4856135;29;20229;-77
2021/05/16 10:21:31;;;;;;;1.20;1.00;;;;;;;;;;4871803;29;20252;-77
2021/05/16 10:24:10;;;;;;;2.90;1.20;;;;;;;;;;4884469;29;20221;-76
2021/05/16 10:26:39;;;;;;;2.03;1.10;;;;;;;;;;4868152;29;20224;-76
2021/05/16 10:29:09;;;;;;;1.60;0.88;;;;;;;;;;4870804;29;20233;-77
2021/05/16 10:31:48;;;;;;;1.73;1.03;;;;;;;;;;4867047;29;20226;-76
2021/05/16 10:34:42;;;;;;;2.00;0.83;;;;;;;;;;4889977;29;20225;-76
2021/05/16 10:37:15;;;;;;;3.57;1.10;;;;;;;;;;4894730;29;20233;-76
2021/05/16 10:40:01;;;;;;;2.37;1.00;;;;;;;;;;4887083;29;20240;-75
2021/05/16 10:42:37;;;;;;;4.43;1.00;;;;;;;;;;4862892;29;20237;-77
2021/05/16 10:45:09;;;;;;;2.40;1.20;;;;;;;;;;4869574;29;20237;-76
2021/05/16 10:47:52;;;;;;;3.70;1.30;;;;;;;;;;4883553;29;20229;-76
2021/05/16 10:50:40;;;;;;;2.30;1.00;;;;;;;;;;4868309;29;20233;-77
2021/05/16 10:53:10;;;;;;;3.23;0.80;;;;;;;;;;4885843;29;20241;-76
2021/05/16 10:55:40;;;;;;;2.10;1.00;;;;;;;;;;4868125;29;20229;-76
2021/05/16 10:58:33;;;;;;;2.27;0.90;;;;;;;;;;4871648;29;20229;-76
2021/05/16 11:01:03;;;;;;;1.77;1.10;;;;;;;;;;4884134;29;20244;-77
2021/05/16 11:03:53;;;;;;;1.57;0.87;;;;;;;;;;4884678;29;20237;-76
2021/05/16 11:06:22;;;;;;;2.50;1.00;;;;;;;;;;4876290;29;20234;-76
2021/05/16 11:09:10;;;;;;;3.17;1.20;;;;;;;;;;4890123;29;20236;-76
2021/05/16 11:11:57;;;;;;;1.90;0.90;;;;;;;;;;4886702;29;20236;-76
2021/05/16 11:14:28;;;;;;;1.37;0.80;;;;;;;;;;4869837;29;20226;-77
2021/05/16 11:16:59;;;;;;;0.97;0.70;;;;;;;;;;4873614;29;20233;-77
2021/05/16 11:19:28;;;;;;;1.60;0.93;;;;;;;;;;4877756;29;20248;-77
2021/05/16 11:21:58;;;;;;;3.00;1.50;;;;;;;;;;4873102;29;20230;-77
2021/05/16 11:24:37;;;;;;;2.30;1.17;;;;;;;;;;4892563;29;20723;-77
2021/05/16 11:27:20;;;;;;;1.37;1.00;;;;;;;;;;4874255;29;20248;-80
2021/05/16 11:29:54;;;;;;;2.57;0.97;;;;;;;;;;4877269;29;20237;-77
2021/05/16 11:32:29;;;;;;;2.47;1.20;;;;;;;;;;4874900;29;20625;-76
2021/05/16 11:35:16;;;;;;;2.20;1.17;;;;;;;;;;4875332;29;20221;-77
2021/05/16 11:37:48;;;;;;;3.93;1.40;;;;;;;;;;4878524;29;20229;-77
2021/05/16 11:40:24;;;;;;;4.63;1.03;;;;;;;;;;4875626;29;20229;-78
2021/05/16 11:42:57;;;;;;;3.47;1.43;;;;;;;;;;4867460;29;20607;-77
2021/05/16 11:45:29;;;;;;;1.83;1.10;;;;;;;;;;4866129;29;20238;-77
2021/05/16 11:47:58;;;;;;;2.03;1.13;;;;;;;;;;4881083;29;20241;-78
2021/05/16 11:50:42;;;;;;;3.17;1.20;;;;;;;;;;4863397;29;20233;-78
2021/05/16 11:53:10;;;;;;;2.90;1.20;;;;;;;;;;4864206;29;20243;-78
2021/05/16 11:55:38;;;;;;;3.13;1.20;;;;;;;;;;4862283;29;20268;-79
2021/05/16 11:58:09;;;;;;;2.03;1.33;;;;;;;;;;4850482;29;20234;-78
2021/05/16 12:00:37;;;;;;;2.50;1.20;;;;;;;;;;4869435;29;20221;-78
2021/05/16 12:03:11;;;;;;;2.90;1.10;;;;;;;;;;4856349;29;20578;-78
2021/05/16 12:05:40;;;;;;;2.93;1.20;;;;;;;;;;4874851;29;20241;-78
2021/05/16 12:08:15;;;;;;;1.20;0.97;;;;;;;;;;4871336;29;20241;-78
2021/05/16 12:10:44;;;;;;;1.40;0.90;;;;;;;;;;4875182;29;20240;-78
2021/05/16 12:13:22;;;;;;;1.43;1.00;;;;;;;;;;4889275;29;20237;-78
2021/05/16 12:15:50;;;;;;;2.13;0.97;;;;;;;;;;4879910;29;20248;-79
2021/05/16 12:18:21;;;;;;;1.27;1.07;;;;;;;;;;4883331;29;20233;-78
2021/05/16 12:21:00;;;;;;;1.97;1.00;;;;;;;;;;4886679;29;20734;-78
2021/05/16 12:23:28;;;;;;;1.80;1.00;;;;;;;;;;4859756;29;20224;-78
2021/05/16 12:25:56;;;;;;;1.73;0.70;;;;;;;;;;4869409;29;20613;-78
2021/05/16 12:28:25;;;;;;;1.37;0.90;;;;;;;;;;4872369;29;20236;-78
2021/05/16 12:30:53;;;;;;;2.63;1.10;;;;;;;;;;4882472;29;20245;-80
2021/05/16 12:33:22;;;;;;;1.57;1.00;;;;;;;;;;4860292;29;20608;-78
2021/05/16 12:35:51;;;;;;;1.67;1.00;;;;;;;;;;4871952;29;20699;-77
2021/05/16 12:38:19;;;;;;;3.70;1.30;;;;;;;;;;4868875;29;20256;-77
2021/05/16 12:40:47;;;;;;;0.83;0.80;;;;;;;;;;4882129;29;20238;-78
2021/05/16 12:43:18;;;;;;;1.60;0.90;;;;;;;;;;4869053;29;20621;-79
2021/05/16 12:45:46;;;;;;;1.13;0.90;;;;;;;;;;4885892;29;20241;-76
2021/05/16 12:48:18;;;;;;;1.27;0.80;;;;;;;;;;4870455;29;20256;-76
2021/05/16 12:50:49;;;;;;;1.97;1.07;;;;;;;;;;4873253;29;20308;-79
2021/05/16 12:53:24;;;;;;;0.80;0.80;;;;;;;;;;4866131;29;20629;-76
2021/05/16 12:55:53;;;;;;;3.07;0.80;;;;;;;;;;4864042;29;20640;-77
2021/05/16 12:58:26;;;;;;;1.83;0.90;;;;;;;;;;4866072;29;20245;-77
2021/05/16 13:00:58;;;;;;;0.90;0.70;;;;;;;;;;4878234;29;20237;-77
2021/05/16 13:03:28;;;;;;;1.10;0.73;;;;;;;;;;4866789;29;20238;-77
2021/05/16 13:05:59;;;;;;;1.27;0.80;;;;;;;;;;4869910;29;20225;-77
2021/05/16 13:08:35;;;;;;;1.03;0.90;;;;;;;;;;4872610;29;20245;-77
2021/05/16 13:11:05;;;;;;;1.20;0.80;;;;;;;;;;4866608;29;20618;-77
2021/05/16 13:13:37;;;;;;;0.97;0.70;;;;;;;;;;4880782;29;20735;-77
2021/05/16 13:16:06;;;;;;;1.17;0.90;;;;;;;;;;4885680;29;20713;-77
2021/05/16 13:18:43;;;;;;;1.23;0.90;;;;;;;;;;4885695;29;20233;-77
2021/05/16 13:21:29;;;;;;;2.87;0.97;;;;;;;;;;4862660;29;20244;-78
2021/05/16 13:24:07;;;;;;;1.50;1.10;;;;;;;;;;4880433;29;20234;-77
2021/05/16 13:26:54;;;;;;;1.93;1.47;;;;;;;;;;4865545;29;20603;-77
2021/05/16 13:29:24;;;;;;;2.60;1.00;;;;;;;;;;4871522;29;20241;-79
2021/05/16 13:31:53;;;;;;;2.97;1.20;;;;;;;;;;4864516;29;20226;-78
2021/05/16 13:34:26;;;;;;;2.00;1.00;;;;;;;;;;4865358;29;20248;-77
2021/05/16 13:36:56;;;;;;;3.03;1.67;;;;;;;;;;4867925;29;20230;-77
2021/05/16 13:39:28;;;;;;;1.23;1.00;;;;;;;;;;4862145;29;20230;-77
2021/05/16 13:41:59;;;;;;;1.30;1.10;;;;;;;;;;4871470;29;20225;-78
2021/05/16 13:44:28;;;;;;;3.70;1.00;;;;;;;;;;4876158;29;20237;-78
2021/05/16 13:46:56;;;;;;;2.40;1.03;;;;;;;;;;4881602;29;20226;-78
2021/05/16 13:49:26;;;;;;;1.83;1.23;;;;;;;;;;4869408;29;20270;-78
2021/05/16 13:51:55;;;;;;;1.50;1.07;;;;;;;;;;4851436;29;20237;-80
2021/05/16 13:54:25;;;;;;;2.03;1.13;;;;;;;;;;4868396;29;20252;-79
2021/05/16 13:56:57;;;;;;;2.80;1.10;;;;;;;;;;4885850;29;20244;-83
2021/05/16 13:59:26;;;;;;;2.33;1.20;;;;;;;;;;4884043;29;20241;-80
2021/05/16 14:01:57;;;;;;;2.30;1.17;;;;;;;;;;4868257;29;20246;-81
2021/05/16 14:04:27;;;;;;;1.37;1.20;;;;;;;;;;4887003;29;20233;-78
2021/05/16 14:06:56;;;;;;;1.90;0.93;;;;;;;;;;4878326;29;20601;-80
2021/05/16 14:09:26;;;;;;;1.03;0.90;;;;;;;;;;4867059;29;20248;-77
2021/05/16 14:11:55;;;;;;;2.40;1.20;;;;;;;;;;4859005;29;20229;-78
2021/05/16 14:14:23;;;;;;;1.60;1.10;;;;;;;;;;4871002;29;20252;-78
2021/05/16 14:16:51;;;;;;;2.20;1.20;;;;;;;;;;4852322;29;20242;-79
2021/05/16 14:19:19;;;;;;;1.30;1.10;;;;;;;;;;4883877;29;20238;-78
2021/05/16 14:21:47;;;;;;;1.90;1.17;;;;;;;;;;4863104;29;20230;-78
2021/05/16 14:24:16;;;;;;;4.10;2.30;;;;;;;;;;4883816;29;20229;-79
2021/05/16 14:26:44;;;;;;;6.77;5.33;;;;;;;;;;4867155;29;20602;-78
2021/05/16 14:29:12;;;;;;;22.67;15.97;;;;;;;;;;4867839;29;21443;-78
2021/05/16 14:31:40;;;;;;;2.43;1.97;;;;;;;;;;4872648;29;20245;-79
2021/05/16 14:34:08;;;;;;;1.73;1.30;;;;;;;;;;4871682;29;20229;-79
2021/05/16 14:36:36;;;;;;;1.10;0.90;;;;;;;;;;4873038;29;20225;-78
2021/05/16 14:39:05;;;;;;;3.43;1.20;;;;;;;;;;4876129;29;20237;-79
2021/05/16 14:41:33;;;;;;;12.20;8.17;;;;;;;;;;4885332;29;20727;-80
2021/05/16 14:44:02;;;;;;;2.80;1.90;;;;;;;;;;4862339;29;20647;-77
2021/05/16 14:46:30;;;;;;;1.33;1.20;;;;;;;;;;4879295;29;20222;-77
2021/05/16 14:48:58;;;;;;;6.53;3.90;;;;;;;;;;4849517;29;20238;-78
2021/05/16 14:51:28;;;;;;;7.47;3.80;;;;;;;;;;4860334;29;20239;-78
2021/05/16 14:53:56;;;;;;;2.23;1.70;;;;;;;;;;4868967;29;20632;-80
2021/05/16 14:56:25;;;;;;;6.47;3.80;;;;;;;;;;4863364;29;20229;-78
2021/05/16 14:58:54;;;;;;;6.73;3.47;;;;;;;;;;4866318;29;20225;-78
2021/05/16 15:01:22;;;;;;;3.17;1.90;;;;;;;;;;4852759;29;20233;-77
2021/05/16 15:03:50;;;;;;;3.97;2.47;;;;;;;;;;4847480;29;20711;-78